Time;durP1;ratioP1;P1;durP2;ratioP2;P2;SDS_P1;SDS_P2;PMS_P1;PMS_P2;Temp;Humidity;BMP_temperature;BMP_pressure;BME280_temperature;BME280_humidity;BME280_pressure;Samples;Min_cycle;Max_cycle;Signal;HPM_P1;HPM_P2
2024/03/27 00:00:31;;;;;;;8.13;7.23;;;;;;;12.22;50.44;98659.94;5027782;28;20175;-81
2024/03/27 00:02:56;;;;;;;9.30;8.30;;;;;;;12.31;50.37;98646.56;5037390;28;20251;-81
2024/03/27 00:05:22;;;;;;;8.37;7.57;;;;;;;12.41;50.28;98645.41;5064997;28;20200;-82
2024/03/27 00:07:47;;;;;;;9.80;7.90;;;;;;;12.33;50.20;98641.34;5072559;28;20229;-80
2024/03/27 00:10:13;;;;;;;10.73;8.20;;;;;;;11.98;50.98;98638.03;5079455;28;20192;-80
2024/03/27 00:12:39;;;;;;;10.80;8.70;;;;;;;11.99;50.87;98629.28;5075051;28;20200;-80
2024/03/27 00:15:05;;;;;;;9.00;8.10;;;;;;;12.03;50.95;98634.38;5047803;28;20431;-80
2024/03/27 00:17:30;;;;;;;9.40;8.40;;;;;;;11.98;50.96;98638.88;5046989;28;20407;-80
2024/03/27 00:19:56;;;;;;;9.30;8.10;;;;;;;12.26;50.51;98631.06;5045932;28;20166;-81
2024/03/27 00:22:21;;;;;;;9.03;8.00;;;;;;;12.31;50.08;98628.28;5043416;28;20194;-81
2024/03/27 00:24:46;;;;;;;8.93;7.93;;;;;;;12.17;50.38;98631.34;5040626;28;20263;-81
2024/03/27 00:27:12;;;;;;;9.33;8.40;;;;;;;12.10;50.69;98630.69;5041623;28;20205;-80
2024/03/27 00:29:38;;;;;;;9.63;8.60;;;;;;;12.26;50.33;98632.84;5042410;28;20229;-79
2024/03/27 00:32:05;;;;;;;9.50;8.50;;;;;;;12.11;50.56;98621.09;5042159;28;20942;-81
2024/03/27 00:34:32;;;;;;;9.60;8.60;;;;;;;12.23;50.46;98619.84;5040035;28;20189;-81
2024/03/27 00:36:59;;;;;;;9.70;8.13;;;;;;;12.19;50.57;98613.00;5039252;28;20447;-80
2024/03/27 00:39:25;;;;;;;10.00;8.60;;;;;;;12.25;50.44;98613.66;5041148;28;20413;-81
2024/03/27 00:41:50;;;;;;;9.87;8.77;;;;;;;12.30;50.48;98606.53;5040693;28;20394;-80
2024/03/27 00:44:16;;;;;;;9.60;8.60;;;;;;;12.20;50.63;98604.28;5036989;28;20420;-81
2024/03/27 00:46:41;;;;;;;9.27;8.37;;;;;;;12.05;50.71;98603.84;5021513;28;20976;-81
2024/03/27 00:49:07;;;;;;;10.77;8.23;;;;;;;12.43;50.17;98591.34;5027797;28;20171;-80
2024/03/27 00:51:33;;;;;;;9.53;8.53;;;;;;;12.20;50.32;98596.44;5024375;28;20258;-81
2024/03/27 00:53:59;;;;;;;8.77;7.87;;;;;;;11.90;51.12;98586.00;5044452;28;20182;-81
2024/03/27 00:56:26;;;;;;;10.67;8.87;;;;;;;12.17;50.62;98584.31;5044904;28;20260;-81
2024/03/27 00:58:52;;;;;;;10.10;8.67;;;;;;;12.25;50.69;98578.88;5045321;28;20388;-81
2024/03/27 01:01:18;;;;;;;9.80;8.80;;;;;;;12.25;50.43;98571.03;5043775;28;20398;-81
2024/03/27 01:03:43;;;;;;;9.50;8.57;;;;;;;12.12;50.40;98571.41;5044150;28;20952;-82
2024/03/27 01:06:08;;;;;;;10.87;8.17;;;;;;;11.71;51.66;98567.44;5042993;28;20217;-81
2024/03/27 01:08:34;;;;;;;10.00;8.53;;;;;;;11.83;51.24;98569.69;5042017;28;20232;-82
2024/03/27 01:11:00;;;;;;;11.60;9.20;;;;;;;11.86;51.24;98563.50;5041461;28;20249;-81
2024/03/27 01:13:25;;;;;;;9.80;8.80;;;;;;;12.22;50.67;98556.31;5042610;28;20170;-82
2024/03/27 01:15:51;;;;;;;11.47;8.77;;;;;;;12.04;50.89;98555.16;5043136;28;20562;-81
2024/03/27 01:18:16;;;;;;;10.50;9.20;;;;;;;12.07;50.80;98556.78;5043948;28;20175;-80
2024/03/27 01:20:43;;;;;;;11.17;9.00;;;;;;;11.77;51.30;98554.19;5042597;28;20196;-82
2024/03/27 01:23:08;;;;;;;9.87;8.57;;;;;;;11.59;51.48;98546.00;5042942;28;20197;-82
2024/03/27 01:25:38;;;;;;;10.70;8.97;;;;;;;11.83;51.24;98547.94;5042165;28;20441;-81
2024/03/27 01:28:04;;;;;;;9.70;8.63;;;;;;;11.42;52.09;98543.91;5042660;28;20170;-81
2024/03/27 01:30:29;;;;;;;12.87;9.50;;;;;;;11.55;51.82;98533.09;5041700;28;20407;-81
2024/03/27 01:32:56;;;;;;;10.30;9.23;;;;;;;11.35;51.78;98542.41;5042324;28;20413;-81
2024/03/27 01:35:22;;;;;;;13.20;9.33;;;;;;;11.29;52.38;98540.78;5025157;28;20274;-81
2024/03/27 01:37:47;;;;;;;9.33;8.37;;;;;;;11.29;52.12;98551.22;5049140;28;20422;-81
2024/03/27 01:40:12;;;;;;;9.17;8.10;;;;;;;11.59;51.69;98551.22;5048051;28;20170;-81
2024/03/27 01:42:37;;;;;;;9.80;8.47;;;;;;;11.70;51.80;98548.28;5043533;28;20234;-82
2024/03/27 01:45:03;;;;;;;9.30;8.20;;;;;;;11.97;51.10;98556.22;5042722;28;20214;-81
2024/03/27 01:47:28;;;;;;;10.70;8.90;;;;;;;11.31;52.27;98551.19;5042057;28;20165;-81
2024/03/27 01:49:55;;;;;;;9.40;8.50;;;;;;;11.58;51.98;98557.38;5041271;28;20239;-81
2024/03/27 01:52:21;;;;;;;10.00;8.63;;;;;;;11.69;51.92;98557.06;5042500;28;20170;-82
2024/03/27 01:54:47;;;;;;;10.80;8.90;;;;;;;11.63;51.88;98557.22;5043400;28;20455;-81
2024/03/27 01:57:13;;;;;;;10.07;8.97;;;;;;;11.16;52.45;98549.00;5047381;28;20405;-81
2024/03/27 01:59:38;;;;;;;10.03;8.30;;;;;;;11.44;52.17;98542.09;5046476;28;20182;-80
2024/03/27 02:02:05;;;;;;;9.67;8.50;;;;;;;11.12;53.06;98541.28;5046941;28;20457;-81
2024/03/27 02:04:30;;;;;;;9.20;8.20;;;;;;;11.20;52.60;98545.41;5066592;28;20170;-80
2024/03/27 02:06:57;;;;;;;10.00;8.57;;;;;;;11.49;51.90;98541.09;5071556;28;20414;-80
2024/03/27 02:09:24;;;;;;;9.87;8.87;;;;;;;11.58;51.59;98533.00;5053059;28;20205;-80
2024/03/27 02:11:49;;;;;;;9.50;8.40;;;;;;;11.71;51.35;98529.13;5045189;28;20415;-81
2024/03/27 02:14:15;;;;;;;10.33;8.40;;;;;;;11.20;52.21;98528.00;5044575;28;20387;-81
2024/03/27 02:16:41;;;;;;;8.80;7.90;;;;;;;11.16;51.96;98525.53;5043484;28;20210;-81
2024/03/27 02:19:06;;;;;;;10.17;8.60;;;;;;;11.38;52.19;98526.66;5041459;28;20647;-81
2024/03/27 02:21:32;;;;;;;9.50;8.50;;;;;;;11.85;51.34;98522.63;5041267;28;20387;-80
2024/03/27 02:24:09;;;;;;;9.47;8.47;;;;;;;11.63;51.64;98515.47;5040896;28;20202;-80
2024/03/27 02:26:35;;;;;;;9.13;8.13;;;;;;;11.85;51.08;98509.56;5040939;28;20487;-81
2024/03/27 02:29:01;;;;;;;9.10;8.20;;;;;;;11.66;51.36;98511.91;5041366;28;20395;-81
2024/03/27 02:31:27;;;;;;;10.20;9.07;;;;;;;11.62;51.74;98505.91;5040746;28;20395;-81
2024/03/27 02:33:52;;;;;;;11.37;8.27;;;;;;;11.49;52.16;98510.66;5041099;28;20401;-81
2024/03/27 02:36:18;;;;;;;9.93;8.93;;;;;;;11.75;51.37;98509.84;5043376;28;20186;-81
2024/03/27 02:38:43;;;;;;;9.90;8.40;;;;;;;11.70;51.69;98509.13;5041460;28;20178;-81
2024/03/27 02:41:09;;;;;;;9.30;8.33;;;;;;;11.33;52.47;98507.66;5040670;28;20174;-81
2024/03/27 02:43:34;;;;;;;9.80;8.80;;;;;;;11.20;52.54;98501.94;5043738;28;20721;-80
2024/03/27 02:45:59;;;;;;;9.40;8.50;;;;;;;11.28;52.93;98514.75;5049352;28;20216;-80
2024/03/27 02:48:24;;;;;;;10.80;8.80;;;;;;;11.25;52.71;98507.03;5050663;28;20174;-80
2024/03/27 02:50:50;;;;;;;12.90;9.50;;;;;;;11.34;52.89;98514.59;5050312;28;20181;-80
2024/03/27 02:53:15;;;;;;;12.40;10.40;;;;;;;11.38;52.75;98503.16;5051125;28;20170;-80
2024/03/27 02:55:40;;;;;;;11.50;10.30;;;;;;;11.23;52.78;98504.47;5046722;28;20190;-80
2024/03/27 02:58:06;;;;;;;10.97;9.70;;;;;;;11.24;52.85;98513.13;5051177;28;20186;-80
2024/03/27 03:00:31;;;;;;;10.53;8.80;;;;;;;11.00;53.38;98507.75;5050420;28;20162;-79
2024/03/27 03:02:56;;;;;;;9.70;8.40;;;;;;;10.59;54.52;98494.94;5047450;28;20198;-80
2024/03/27 03:05:21;;;;;;;10.10;8.57;;;;;;;11.20;53.39;98490.66;5043884;28;20197;-80
2024/03/27 03:07:47;;;;;;;10.00;8.53;;;;;;;11.36;53.04;98484.06;5040530;28;20228;-80
2024/03/27 03:10:13;;;;;;;9.37;8.17;;;;;;;11.27;52.63;98485.22;5044939;28;20193;-81
2024/03/27 03:12:38;;;;;;;10.83;8.97;;;;;;;11.34;52.55;98483.28;5050540;28;20166;-80
2024/03/27 03:15:04;;;;;;;11.17;8.10;;;;;;;11.14;52.88;98480.41;5049978;28;20225;-80
2024/03/27 03:17:30;;;;;;;9.80;8.00;;;;;;;11.14;52.83;98481.25;5049425;28;20212;-80
2024/03/27 03:19:55;;;;;;;9.60;8.70;;;;;;;11.12;53.21;98481.31;5048679;28;20412;-79
2024/03/27 03:22:20;;;;;;;11.87;9.30;;;;;;;10.85;53.26;98480.34;5042449;28;20208;-81
2024/03/27 03:24:45;;;;;;;9.10;8.20;;;;;;;10.77;53.78;98475.34;5039473;28;20190;-81
2024/03/27 03:27:11;;;;;;;10.17;9.07;;;;;;;10.60;54.21;98473.19;5044691;28;20174;-81
2024/03/27 03:29:36;;;;;;;9.53;8.53;;;;;;;10.93;53.57;98469.69;5040600;28;20170;-81
2024/03/27 03:32:01;;;;;;;10.13;9.13;;;;;;;10.65;54.05;98461.78;5045282;28;20170;-80
2024/03/27 03:34:27;;;;;;;9.97;8.97;;;;;;;10.92;53.65;98453.19;5057423;28;20166;-81
2024/03/27 03:36:53;;;;;;;31.33;26.40;;;;;;;11.00;53.74;98455.59;5056873;28;20168;-80
2024/03/27 03:39:18;;;;;;;36.47;25.57;;;;;;;10.65;54.21;98451.34;5054532;28;20397;-81
2024/03/27 03:41:43;;;;;;;17.17;13.30;;;;;;;10.92;53.65;98447.16;5040522;28;20175;-80
2024/03/27 03:44:09;;;;;;;10.70;8.47;;;;;;;11.06;53.19;98434.53;5020530;28;20175;-80
2024/03/27 03:46:34;;;;;;;9.83;8.13;;;;;;;10.86;53.45;98434.28;5023018;28;20221;-80
2024/03/27 03:48:59;;;;;;;10.40;9.03;;;;;;;10.83;53.51;98423.94;5027898;28;20177;-80
2024/03/27 03:51:25;;;;;;;10.40;9.30;;;;;;;11.03;53.40;98416.38;5029179;28;20193;-82
2024/03/27 03:53:50;;;;;;;10.40;9.37;;;;;;;11.00;53.25;98411.28;5032337;28;20173;-81
2024/03/27 03:56:15;;;;;;;9.60;8.53;;;;;;;11.19;52.86;98408.09;5036270;28;20222;-81
2024/03/27 03:58:40;;;;;;;10.90;9.10;;;;;;;11.03;53.27;98408.56;5037075;28;20246;-80
2024/03/27 04:01:06;;;;;;;10.90;9.33;;;;;;;10.88;54.01;98404.66;5036880;28;20175;-80
2024/03/27 04:03:32;;;;;;;10.90;9.30;;;;;;;11.11;53.08;98409.19;5059760;28;20224;-81
2024/03/27 04:05:58;;;;;;;10.83;9.73;;;;;;;11.17;52.89;98396.88;5076762;28;20173;-81
2024/03/27 04:08:24;;;;;;;12.13;9.73;;;;;;;11.27;52.86;98398.28;5076590;28;20175;-80
2024/03/27 04:10:49;;;;;;;10.30;9.07;;;;;;;11.21;53.25;98398.47;5076255;28;20432;-79
2024/03/27 04:13:14;;;;;;;12.37;9.90;;;;;;;11.24;53.14;98403.59;5075780;28;20171;-80
2024/03/27 04:15:41;;;;;;;11.47;8.73;;;;;;;11.02;53.22;98390.38;5075744;28;20276;-81
2024/03/27 04:18:06;;;;;;;64.87;44.20;;;;;;;11.51;52.52;98387.97;5076675;28;20154;-82
2024/03/27 04:20:32;;;;;;;45.27;32.53;;;;;;;11.21;53.13;98385.44;5076078;28;20378;-79
2024/03/27 04:22:57;;;;;;;18.90;14.90;;;;;;;11.31;52.75;98393.84;5075437;28;20205;-81
2024/03/27 04:25:23;;;;;;;12.70;9.13;;;;;;;11.20;53.25;98399.38;5075630;28;20277;-80
2024/03/27 04:27:49;;;;;;;10.63;9.47;;;;;;;11.40;52.41;98407.44;5080008;28;20174;-79
2024/03/27 04:30:15;;;;;;;11.27;9.23;;;;;;;11.12;52.83;98405.69;5079224;28;20374;-79
2024/03/27 04:32:40;;;;;;;46.17;30.53;;;;;;;11.39;52.31;98408.34;5078327;28;20172;-79
2024/03/27 04:35:06;;;;;;;12.67;10.97;;;;;;;11.09;53.18;98402.31;5078334;28;20184;-81
2024/03/27 04:37:31;;;;;;;11.10;9.90;;;;;;;10.81;53.47;98397.94;5064866;28;20169;-80
2024/03/27 04:39:57;;;;;;;10.83;9.70;;;;;;;10.77;53.97;98396.28;5064528;28;20205;-81
2024/03/27 04:42:22;;;;;;;12.33;10.03;;;;;;;10.69;54.27;98398.25;5055582;28;20566;-80
2024/03/27 04:44:47;;;;;;;10.43;9.43;;;;;;;10.74;53.94;98396.38;5047669;28;20209;-81
2024/03/27 04:47:13;;;;;;;11.67;9.57;;;;;;;10.60;54.36;98404.59;5050674;28;20170;-79
2024/03/27 04:49:38;;;;;;;12.20;9.80;;;;;;;10.80;53.88;98406.66;5049456;28;20170;-81
2024/03/27 04:52:03;;;;;;;13.53;9.00;;;;;;;10.38;54.87;98406.97;5051902;28;20200;-81
2024/03/27 04:54:30;;;;;;;12.00;9.60;;;;;;;10.65;54.26;98405.31;5055291;28;20166;-80
2024/03/27 04:56:55;;;;;;;10.77;9.67;;;;;;;10.85;53.19;98398.69;5052730;28;20540;-82
2024/03/27 04:59:22;;;;;;;10.97;9.97;;;;;;;10.95;52.70;98406.19;5052558;28;20480;-81
2024/03/27 05:01:48;;;;;;;11.83;9.20;;;;;;;10.66;53.63;98407.00;5053697;28;20175;-81
2024/03/27 05:04:13;;;;;;;10.50;9.50;;;;;;;10.76;53.63;98400.66;5069812;28;20438;-80
2024/03/27 05:06:41;;;;;;;11.03;9.90;;;;;;;10.47;53.61;98408.44;5077232;28;20190;-81
2024/03/27 05:09:09;;;;;;;10.83;9.60;;;;;;;10.52;54.14;98409.16;5073760;28;20181;-81
2024/03/27 05:11:36;;;;;;;10.33;8.87;;;;;;;10.43;54.29;98411.13;5069449;28;20379;-81
2024/03/27 05:14:01;;;;;;;10.40;9.40;;;;;;;10.94;53.54;98408.84;5066907;28;20411;-82
2024/03/27 05:16:26;;;;;;;51.00;34.70;;;;;;;10.36;54.87;98412.19;5064979;28;20432;-81
2024/03/27 05:18:52;;;;;;;11.07;9.90;;;;;;;10.32;54.76;98396.66;5062775;28;20204;-82
2024/03/27 05:21:17;;;;;;;11.20;9.63;;;;;;;10.57;54.42;98402.09;5060732;28;20176;-81
2024/03/27 05:23:43;;;;;;;13.63;11.07;;;;;;;10.09;55.35;98419.81;5059705;28;20223;-81
2024/03/27 05:26:08;;;;;;;11.90;10.60;;;;;;;10.17;55.34;98417.00;5058901;28;20197;-81
2024/03/27 05:28:33;;;;;;;11.40;9.70;;;;;;;10.68;54.41;98412.22;5058898;28;20253;-82
2024/03/27 05:30:59;;;;;;;10.87;9.20;;;;;;;10.37;54.89;98411.28;5059829;28;20170;-82
2024/03/27 05:33:24;;;;;;;12.03;9.80;;;;;;;10.63;54.53;98406.28;5061219;28;20158;-81
2024/03/27 05:35:49;;;;;;;12.47;9.90;;;;;;;10.43;54.98;98405.06;5059043;28;20265;-80
2024/03/27 05:38:15;;;;;;;12.97;8.83;;;;;;;10.57;54.08;98417.72;5058228;28;20169;-84
2024/03/27 05:40:40;;;;;;;21.93;16.90;;;;;;;10.72;53.70;98417.28;5058360;28;20170;-87
2024/03/27 05:43:06;;;;;;;18.10;15.57;;;;;;;10.85;53.74;98411.72;5044897;28;20270;-82
2024/03/27 05:45:31;;;;;;;30.33;20.73;;;;;;;10.57;54.41;98408.16;5036648;28;20217;-83
2024/03/27 05:47:57;;;;;;;22.70;18.00;;;;;;;10.39;54.86;98399.09;5061750;22;20422;-75
2024/03/27 20:54:09;;;;;;;20.50;17.47;;;;;;;15.35;55.02;98392.09;5691878;23;20552;-77
2024/03/27 20:56:35;;;;;;;20.57;15.40;;;;;;;15.36;54.83;98392.03;4999141;28;20423;-79
2024/03/27 20:59:00;;;;;;;17.87;16.07;;;;;;;15.28;55.20;98397.63;4997490;28;20439;-78
2024/03/27 21:01:25;;;;;;;17.07;14.90;;;;;;;15.24;55.28;98392.63;4992308;28;20185;-81
2024/03/27 21:03:54;;;;;;;17.33;15.57;;;;;;;15.40;55.08;98390.13;5012218;28;20207;-77
2024/03/27 21:06:20;;;;;;;19.00;16.10;;;;;;;15.41;54.94;98387.41;5024371;23;20223;-78
2024/03/27 21:08:47;;;;;;;17.73;15.83;;;;;;;15.08;55.38;98388.06;4996156;28;20706;-79
2024/03/27 21:11:16;;;;;;;19.90;17.00;;;;;;;15.20;55.22;98383.19;4994554;28;20653;-79
2024/03/27 21:13:41;;;;;;;18.57;15.30;;;;;;;15.31;55.07;98379.09;4997188;28;20821;-79
2024/03/27 21:16:07;;;;;;;20.20;17.70;;;;;;;15.28;55.00;98373.16;4991731;28;20473;-79
2024/03/27 21:18:33;;;;;;;18.33;16.53;;;;;;;15.36;54.64;98373.66;4977692;28;20172;-79
2024/03/27 21:20:58;;;;;;;18.37;16.43;;;;;;;15.49;54.36;98374.75;4978173;28;20176;-78
2024/03/27 21:23:23;;;;;;;17.77;15.97;;;;;;;15.03;55.13;98378.72;4991068;28;20200;-79
2024/03/27 21:25:49;;;;;;;19.83;15.77;;;;;;;14.79;55.46;98371.91;4976429;28;20200;-80
2024/03/27 21:28:14;;;;;;;19.23;16.30;;;;;;;14.88;55.13;98368.00;4977044;28;20649;-79
2024/03/27 21:30:39;;;;;;;18.40;16.50;;;;;;;14.86;55.26;98371.66;4978204;28;20234;-79
2024/03/27 21:33:05;;;;;;;18.40;16.27;;;;;;;15.04;55.26;98372.56;4977797;28;20179;-79
2024/03/27 21:35:30;;;;;;;19.10;17.10;;;;;;;15.19;54.47;98366.56;4977764;28;20264;-77
2024/03/27 21:37:55;;;;;;;18.27;16.37;;;;;;;15.12;54.67;98358.13;4977722;28;20657;-79
2024/03/27 21:40:21;;;;;;;17.90;16.10;;;;;;;15.19;54.44;98349.97;4976825;28;20231;-79
2024/03/27 21:42:46;;;;;;;19.43;17.37;;;;;;;15.05;54.79;98348.03;4977632;28;20287;-77
2024/03/27 21:45:11;;;;;;;18.67;16.77;;;;;;;14.78;55.24;98343.97;4992302;28;20204;-79
2024/03/27 21:47:36;;;;;;;18.60;15.93;;;;;;;15.00;54.80;98348.22;4977367;28;20199;-78
2024/03/27 21:50:02;;;;;;;19.17;17.23;;;;;;;14.98;54.81;98345.66;4975490;28;20219;-79
2024/03/27 21:52:27;;;;;;;21.07;16.57;;;;;;;14.85;55.12;98343.69;4990263;28;20172;-79
2024/03/27 21:54:53;;;;;;;18.23;16.27;;;;;;;14.67;55.58;98350.63;4976452;28;20208;-79
2024/03/27 21:57:19;;;;;;;20.00;17.60;;;;;;;14.84;55.37;98342.84;4976682;28;20267;-78
2024/03/27 21:59:44;;;;;;;20.03;17.93;;;;;;;14.64;55.67;98349.03;4976714;28;20337;-79
2024/03/27 22:02:10;;;;;;;18.43;16.53;;;;;;;14.72;55.52;98346.91;4975649;28;20563;-80
2024/03/27 22:04:35;;;;;;;18.70;16.70;;;;;;;14.58;55.89;98344.00;4976308;28;20204;-78
2024/03/27 22:07:00;;;;;;;19.33;17.33;;;;;;;14.64;55.80;98333.28;4977374;28;20211;-79
2024/03/27 22:09:26;;;;;;;21.60;17.83;;;;;;;14.36;56.04;98324.00;4978148;28;20180;-78
2024/03/27 22:11:51;;;;;;;19.60;17.60;;;;;;;14.26;57.09;98320.94;4979796;28;20210;-80
2024/03/27 22:14:17;;;;;;;20.57;18.23;;;;;;;14.45;56.38;98326.22;4996722;28;20685;-79
2024/03/27 22:16:42;;;;;;;19.10;17.13;;;;;;;14.45;56.37;98331.47;4981496;28;20687;-79
2024/03/27 22:19:08;;;;;;;20.17;18.07;;;;;;;14.35;56.58;98337.19;4981239;28;20192;-78
2024/03/27 22:21:33;;;;;;;22.97;18.43;;;;;;;14.55;56.08;98333.66;4981939;28;20180;-79
2024/03/27 22:23:59;;;;;;;22.37;19.97;;;;;;;14.45;56.07;98334.09;4992257;28;20624;-78
2024/03/27 22:26:25;;;;;;;19.97;17.87;;;;;;;14.38;56.82;98326.56;4978211;28;20310;-79
2024/03/27 22:28:51;;;;;;;19.00;17.10;;;;;;;14.45;56.48;98328.84;4981779;28;20565;-79
2024/03/27 22:31:17;;;;;;;21.13;18.97;;;;;;;14.09;57.38;98326.91;4977892;28;20709;-78
2024/03/27 22:33:42;;;;;;;19.63;17.53;;;;;;;14.03;57.48;98326.34;4980704;28;20184;-79
2024/03/27 22:36:09;;;;;;;20.83;18.73;;;;;;;14.08;57.39;98312.09;4983544;28;20466;-79
2024/03/27 22:38:35;;;;;;;21.37;19.10;;;;;;;14.07;57.29;98301.69;4985569;28;20252;-79
2024/03/27 22:41:00;;;;;;;26.07;19.27;;;;;;;14.09;57.71;98292.84;4983737;28;20416;-79
2024/03/27 22:43:26;;;;;;;21.80;19.40;;;;;;;14.27;57.04;98292.97;4983483;28;20206;-78
2024/03/27 22:45:51;;;;;;;21.17;18.80;;;;;;;14.02;57.72;98287.94;4975276;28;20203;-79
2024/03/27 22:48:16;;;;;;;22.70;20.30;;;;;;;14.02;57.70;98283.59;4975704;28;20202;-77
2024/03/27 22:51:02;;;;;;;22.00;19.67;;;;;;;13.93;57.75;98289.22;4985295;28;20231;-79
2024/03/27 22:53:29;;;;;;;23.60;20.33;;;;;;;13.74;58.47;98283.94;4996323;28;20538;-79
2024/03/27 22:56:07;;;;;;;21.37;19.17;;;;;;;14.01;57.93;98279.25;4978575;28;20445;-79
2024/03/27 22:58:33;;;;;;;21.37;19.07;;;;;;;14.11;57.12;98277.94;4959977;28;20387;-78
2024/03/27 23:00:58;;;;;;;22.37;19.97;;;;;;;14.11;57.39;98283.19;4960729;29;20416;-78
2024/03/27 23:03:26;;;;;;;22.77;20.23;;;;;;;13.72;58.36;98280.50;4960997;28;20203;-79
2024/03/27 23:05:51;;;;;;;21.33;19.13;;;;;;;13.94;58.24;98280.44;4976570;28;20208;-78
2024/03/27 23:08:17;;;;;;;22.87;19.80;;;;;;;14.01;57.45;98279.25;4967386;28;20427;-79
2024/03/27 23:10:46;;;;;;;22.53;20.20;;;;;;;13.86;58.35;98272.91;4976361;28;20567;-79
2024/03/27 23:13:15;;;;;;;22.13;19.83;;;;;;;13.66;58.80;98268.53;4974369;28;20645;-78
2024/03/27 23:15:41;;;;;;;22.80;20.50;;;;;;;13.84;58.45;98263.44;4973756;28;20414;-79
2024/03/27 23:18:07;;;;;;;22.80;20.43;;;;;;;13.90;58.40;98263.16;4973866;28;20483;-78
2024/03/27 23:20:32;;;;;;;22.37;19.90;;;;;;;13.87;58.76;98252.81;4973753;28;20494;-79
2024/03/27 23:22:57;;;;;;;22.57;20.17;;;;;;;13.83;58.55;98257.34;4973645;28;20251;-78
2024/03/27 23:25:23;;;;;;;21.73;19.53;;;;;;;13.91;58.72;98257.00;4988619;28;20218;-78
2024/03/27 23:27:48;;;;;;;22.93;20.50;;;;;;;13.63;59.03;98253.81;4973798;28;20175;-79
2024/03/27 23:30:14;;;;;;;24.17;21.70;;;;;;;13.90;58.65;98250.06;4973595;28;20172;-78
2024/03/27 23:32:40;;;;;;;21.37;19.07;;;;;;;14.34;57.67;98246.38;4973244;28;20697;-78
2024/03/27 23:35:07;;;;;;;24.00;21.50;;;;;;;14.20;57.70;98244.38;4975611;28;20180;-79
2024/03/27 23:37:33;;;;;;;23.03;20.77;;;;;;;14.24;57.59;98240.69;4975945;28;20385;-79
2024/03/27 23:39:58;;;;;;;23.30;20.90;;;;;;;13.99;58.49;98241.81;4976654;28;20970;-78
2024/03/27 23:42:24;;;;;;;26.00;22.50;;;;;;;14.05;57.86;98249.38;4990581;28;20191;-77
2024/03/27 23:44:52;;;;;;;28.30;21.23;;;;;;;13.88;58.27;98250.16;4988659;28;20223;-79
2024/03/27 23:47:18;;;;;;;23.23;20.80;;;;;;;13.65;58.96;98251.13;4988751;28;20168;-78
2024/03/27 23:49:43;;;;;;;24.77;21.50;;;;;;;13.68;58.79;98253.63;4974203;28;20461;-78
2024/03/27 23:52:08;;;;;;;24.70;21.67;;;;;;;13.20;60.40;98252.13;4973793;28;20168;-79
2024/03/27 23:54:34;;;;;;;25.27;22.57;;;;;;;13.06;60.75;98248.31;4973490;28;20230;-78
2024/03/27 23:56:59;;;;;;;25.93;23.23;;;;;;;13.50;59.96;98251.78;4973649;28;20192;-77
2024/03/27 23:59:25;;;;;;;28.63;23.27;;;;;;;13.42;59.78;98252.97;4973583;28;20172;-79
